Time;durP1;ratioP1;P1;durP2;ratioP2;P2;SDS_P1;SDS_P2;PMS_P1;PMS_P2;Temp;Humidity;BMP_temperature;BMP_pressure;BME280_temperature;BME280_humidity;BME280_pressure;Samples;Min_cycle;Max_cycle;Signal;HPM_P1;HPM_P2
2021/10/03 21:06:58;;;;;;;4.13;2.67;;;14.50;99.90;;;;;;5100332;27;20531;-63
2021/10/03 21:09:28;;;;;;;4.07;2.30;;;14.40;99.90;;;;;;5086823;28;20442;-67
2021/10/03 21:11:55;;;;;;;4.30;2.50;;;14.40;99.90;;;;;;5084367;28;20486;-62
2021/10/03 21:14:22;;;;;;;4.10;2.90;;;14.50;99.90;;;;;;5086501;28;20967;-64
2021/10/03 21:16:49;;;;;;;3.67;2.70;;;14.50;99.90;;;;;;5087288;28;20546;-62
2021/10/03 21:19:16;;;;;;;4.00;2.40;;;14.60;99.90;;;;;;5086529;28;21019;-62
2021/10/03 21:21:43;;;;;;;2.90;1.80;;;14.60;99.90;;;;;;5084467;28;20541;-62
2021/10/03 21:24:12;;;;;;;5.07;2.20;;;14.60;99.90;;;;;;5086485;28;21133;-63
2021/10/03 21:26:38;;;;;;;3.90;2.23;;;14.60;99.90;;;;;;5087281;28;20564;-65
2021/10/03 21:29:05;;;;;;;4.50;2.40;;;14.60;99.90;;;;;;5087089;28;20466;-64
2021/10/03 21:31:32;;;;;;;3.73;2.53;;;14.60;99.90;;;;;;5086362;28;20452;-64
2021/10/03 21:33:59;;;;;;;3.07;2.27;;;14.60;99.90;;;;;;5086794;28;20447;-64
2021/10/03 21:36:26;;;;;;;5.17;4.07;;;14.60;99.90;;;;;;5086938;28;20959;-65
2021/10/03 21:38:53;;;;;;;5.60;3.20;;;14.80;99.90;;;;;;5086710;28;20472;-64
2021/10/03 21:41:21;;;;;;;3.50;2.50;;;14.80;99.90;;;;;;5086432;28;20447;-64
2021/10/03 21:43:48;;;;;;;3.50;2.33;;;14.80;99.90;;;;;;5085891;28;20542;-64
2021/10/03 21:46:15;;;;;;;3.00;1.90;;;14.80;99.90;;;;;;5086724;28;20482;-64
2021/10/03 21:48:42;;;;;;;3.07;1.87;;;14.80;99.90;;;;;;5087085;28;20474;-64
2021/10/03 21:51:09;;;;;;;3.43;2.33;;;14.90;99.90;;;;;;5086543;28;20948;-64
2021/10/03 21:53:35;;;;;;;3.20;2.13;;;14.80;99.90;;;;;;5085252;28;20446;-64
2021/10/03 21:56:02;;;;;;;2.60;1.73;;;14.80;99.90;;;;;;5086626;28;21004;-64
2021/10/03 21:58:31;;;;;;;4.63;1.60;;;14.80;99.90;;;;;;5086533;28;20462;-64
2021/10/03 22:01:03;;;;;;;3.97;2.30;;;14.90;99.90;;;;;;5086353;28;21146;-64
2021/10/03 22:03:31;;;;;;;3.00;2.03;;;14.90;99.90;;;;;;5085141;28;20477;-64
2021/10/03 22:05:58;;;;;;;2.70;1.80;;;14.90;99.90;;;;;;5086128;28;20572;-64
2021/10/03 22:08:25;;;;;;;3.90;2.00;;;15.00;99.90;;;;;;5086464;28;20554;-64
2021/10/03 22:10:52;;;;;;;3.30;2.13;;;15.00;99.90;;;;;;5086291;28;20940;-61
2021/10/03 22:13:19;;;;;;;3.70;2.00;;;15.00;99.90;;;;;;5084904;28;20449;-63
2021/10/03 22:15:48;;;;;;;3.20;1.90;;;15.10;99.90;;;;;;5086215;28;20446;-62
2021/10/03 22:18:15;;;;;;;3.40;1.73;;;15.10;99.90;;;;;;5073220;28;20557;-63
2021/10/03 22:20:44;;;;;;;2.53;1.60;;;15.10;99.90;;;;;;5073106;28;20484;-63
2021/10/03 22:23:12;;;;;;;3.93;1.70;;;15.10;99.90;;;;;;5071961;28;20458;-62
2021/10/03 22:25:39;;;;;;;3.00;1.73;;;15.10;99.90;;;;;;5072369;28;20513;-63
2021/10/03 22:28:08;;;;;;;2.93;1.90;;;15.10;99.90;;;;;;5072781;28;20558;-63
2021/10/03 22:30:35;;;;;;;3.33;1.77;;;15.00;99.90;;;;;;5072775;28;20447;-63
2021/10/03 22:33:04;;;;;;;3.00;1.77;;;15.00;99.90;;;;;;5071447;28;20542;-63
2021/10/03 22:35:30;;;;;;;3.27;1.60;;;15.00;99.90;;;;;;5072356;28;20443;-63
2021/10/03 22:37:57;;;;;;;4.20;1.93;;;15.10;99.90;;;;;;5072439;28;20471;-63
2021/10/03 22:40:24;;;;;;;2.60;1.37;;;15.00;99.90;;;;;;5072871;28;20443;-64
2021/10/03 22:42:51;;;;;;;3.00;1.40;;;15.00;99.90;;;;;;5071938;28;20526;-63
2021/10/03 22:45:18;;;;;;;5.33;1.90;;;15.10;99.90;;;;;;5072939;28;20465;-63
2021/10/03 22:47:45;;;;;;;3.30;2.27;;;15.00;99.90;;;;;;5071989;28;21036;-63
2021/10/03 22:50:14;;;;;;;2.80;1.63;;;15.00;99.90;;;;;;5072471;28;20982;-63
2021/10/03 22:56:52;;;;;;;3.00;1.50;;;14.90;99.90;;;;;;5075262;28;20436;-63
2021/10/03 22:59:19;;;;;;;2.70;1.70;;;14.90;99.90;;;;;;5072405;28;20980;-63
2021/10/03 23:01:46;;;;;;;2.97;2.17;;;14.80;99.90;;;;;;5071146;28;20474;-63
2021/10/03 23:04:13;;;;;;;3.23;1.90;;;14.80;99.90;;;;;;5071388;28;20467;-63
2021/10/03 23:06:43;;;;;;;2.70;1.70;;;14.80;99.90;;;;;;5071695;28;20483;-63
2021/10/03 23:09:10;;;;;;;2.73;1.50;;;14.80;99.90;;;;;;5071636;28;20467;-63
2021/10/03 23:11:37;;;;;;;3.50;1.73;;;14.80;99.90;;;;;;5070963;28;20461;-63
2021/10/03 23:14:04;;;;;;;3.70;1.63;;;14.70;99.90;;;;;;5071527;28;20450;-62
2021/10/03 23:16:31;;;;;;;2.43;1.37;;;14.70;99.90;;;;;;5071895;28;21029;-63
2021/10/03 23:18:58;;;;;;;3.30;1.90;;;14.70;99.90;;;;;;5071825;28;20463;-64
2021/10/03 23:21:25;;;;;;;3.50;1.77;;;14.70;99.90;;;;;;5071806;28;20455;-62
2021/10/03 23:23:53;;;;;;;2.83;1.53;;;14.70;99.90;;;;;;5071804;28;20439;-63
2021/10/03 23:26:20;;;;;;;3.30;1.90;;;14.70;99.90;;;;;;5072243;28;21104;-62
2021/10/03 23:28:47;;;;;;;2.37;1.50;;;14.80;99.90;;;;;;5071076;28;20471;-63
2021/10/03 23:31:14;;;;;;;2.47;1.50;;;14.80;99.90;;;;;;5071408;28;20447;-63
2021/10/03 23:33:41;;;;;;;3.00;1.90;;;14.80;99.90;;;;;;5070243;28;20565;-63
2021/10/03 23:36:08;;;;;;;4.13;1.50;;;14.80;99.90;;;;;;5071288;28;20443;-63
2021/10/03 23:38:35;;;;;;;2.70;1.70;;;14.80;99.90;;;;;;5071123;28;20474;-63
2021/10/03 23:41:03;;;;;;;3.70;2.20;;;14.80;99.90;;;;;;5071275;28;20447;-63
2021/10/03 23:43:30;;;;;;;3.30;1.50;;;14.80;99.90;;;;;;5069951;28;20447;-63
2021/10/03 23:45:57;;;;;;;3.20;2.20;;;14.80;99.90;;;;;;5076132;28;20912;-64
2021/10/03 23:48:24;;;;;;;2.77;1.73;;;14.80;99.90;;;;;;5077587;28;20554;-63
2021/10/03 23:50:51;;;;;;;3.00;1.73;;;14.80;99.90;;;;;;5072700;28;20447;-63
2021/10/03 23:53:18;;;;;;;4.93;2.17;;;14.70;99.90;;;;;;5069989;28;20451;-63
2021/10/03 23:55:45;;;;;;;2.97;2.07;;;14.80;99.90;;;;;;5071046;28;20450;-63
2021/10/03 23:58:14;;;;;;;3.27;2.47;;;14.80;99.90;;;;;;5070884;28;20490;-63
